Wickenburg, AZ

6:01 PM MST on December 22, 2014 (GMT -0700)
WickenburgDuffy | Change Station
CLOSE
Current Station
Personal Weather Station
Location: Wickenburg, AZ
Elevation: 2326 ft
Nearby Weather Stations

Elev 2326 ft 33.95 °N, 112.77 °W | Updated 11 seconds ago

Clear
Clear
61.5 °F
Feels Like 61.5 °F
N
7.4
Wind Variable Wind from NNW
Gusts 9.8 mph

Today
High -- | Low -- °F
--% Chance of Precip.
Yesterday
High -- | Low -- °F
Precip. -- in
7:32 AM 5:26 PM
New Moon, 1% visible
Pressure 29.89 in
Visibility 10.0 miles
Clouds Clear
Dew Point 6 °F
Humidity 11%
Rainfall 0.00 in
Snow Depth Not available.
UV 0 out of 12
Pollen 5.00 out of 12
Air Quality Not available.
Flu Activity Not available.
METAR KLUF 230058Z AUTO 13005KT 10SM CLR 16/07 A2989 RMK AO2 SLP121 T01640068 $

More Conditions Fewer Conditions

Pressure 29.89 in
Visibility 10.0 miles
Clouds Clear
Dew Point 6 °F
Humidity 11%
Rainfall 0.00 in
Snow Depth Not available.
UV 0 out of 12
Pollen 5.00 out of 12
Air Quality Not available.
Flu Activity Not available.
METAR KLUF 230058Z AUTO 13005KT 10SM CLR 16/07 A2989 RMK AO2 SLP121 T01640068 $

More Conditions Fewer Conditions

10-Day Weather Forecast

Almanac

Astronomy

Dec. 22, 2014 Rise Set
Actual Time
Civil Twilight
Nautical Twilight
Astronomical Twilight
Moon
Length of Visible Light
Length of Day
Tomorrow will be .
, % of the Moon is Illuminated

Today's Extremes

State Highs State Lows

Community

WunderPhotos

Upload Photos

1,779,742 photos uploaded!

WunderBlogs® & News

Nearby

Air Quality

  Air Quality AQ Index Pollutant
Not available.

Snow Depth

Station Depth Elevation

Earthquake Activity

City Distance Mag. Time & Date
Minimum magnitude displayed is 2.5.

Coastal Water Temperatures

Place Temperature

Nearby Weather Stations